Air Quality Table

TIMESTAMP NO2 SO2 O3 PM10 PM2.5 CO TEMP HUM AIRPRES WS WD NO BENZENE
2021-08-04 01:00 27.74 ug/m3 0.26 ug/m3 71.63 ug/m3 68.68 ug/m3 21.89 ug/m3 0.4 mg/m3 29.37 C 75.7 % 1,014.28 mbar 2.27 m/s 57.64 Deg 14.22 ug/m3 3.22 ug/m3
2021-08-03 01:00 39.92 ug/m3 0.39 ug/m3 60.43 ug/m3 64.12 ug/m3 21.68 ug/m3 0.44 mg/m3 31.67 C 51.23 % 1,012.43 mbar 1.68 m/s 132.02 Deg 19.04 ug/m3 2.73 ug/m3
2021-08-02 01:00 33.51 ug/m3 0.31 ug/m3 60.39 ug/m3 70.71 ug/m3 24.4 ug/m3 0.45 mg/m3 32.45 C 44.87 % 1,011.14 mbar 1.56 m/s 185.69 Deg 13.08 ug/m3 2.84 ug/m3
2021-08-01 01:00 29.2 ug/m3 0.28 ug/m3 65.4 ug/m3 62.82 ug/m3 23.69 ug/m3 0.4 mg/m3 30.56 C 57.52 % 1,010.60 mbar 2.02 m/s 132.36 Deg 11.51 ug/m3 2.36 ug/m3
2021-07-31 01:00 29.73 ug/m3 0.33 ug/m3 59.54 ug/m3 11.08 ug/m3 18.56 ug/m3 0.25 mg/m3 32.45 C 30.99 % 1,012.63 mbar 1.73 m/s 228.41 Deg 5.6 ug/m3 1.4 ug/m3
2021-07-30 01:00 41.62 ug/m3 0.51 ug/m3 62.65 ug/m3 52.12 ug/m3 15.94 ug/m3 0.37 mg/m3 31.82 C 29.96 % 1,013.86 mbar 1.36 m/s 257.14 Deg 15.93 ug/m3 2.82 ug/m3
2021-07-29 01:00 34.87 ug/m3 0.36 ug/m3 72.93 ug/m3 32.14 ug/m3 11.66 ug/m3 0.32 mg/m3 30.15 C 36.94 % 1,014.93 mbar 1.3 m/s 279.57 Deg 12.32 ug/m3 1.8 ug/m3
2021-07-28 01:00 32.49 ug/m3 0.32 ug/m3 69.08 ug/m3 29.98 ug/m3 11.09 ug/m3 0.4 mg/m3 27.76 C 66.96 % 1,016.68 mbar 1.67 m/s 107.02 Deg 14.91 ug/m3 2.83 ug/m3
2021-07-27 01:00 28.02 ug/m3 0.23 ug/m3 60.65 ug/m3 34.33 ug/m3 11.95 ug/m3 0.28 mg/m3 28.26 C 64.9 % 1,015.36 mbar 1.83 m/s 148.01 Deg 12.17 ug/m3 1.12 ug/m3
2021-07-26 01:00 24.09 ug/m3 0.25 ug/m3 69.23 ug/m3 33.12 ug/m3 12.7 ug/m3 0.31 mg/m3 27.91 C 52.34 % 1,013.95 mbar 1.75 m/s 142.71 Deg 8.13 ug/m3 1.67 ug/m3
2021-07-25 01:00 21.59 ug/m3 0.23 ug/m3 74.72 ug/m3 29.5 ug/m3 10.5 ug/m3 0.24 mg/m3 28.7 C 48.51 % 1,013.90 mbar 1.75 m/s 230.06 Deg 4.64 ug/m3 1.28 ug/m3
2021-07-24 01:00 27.37 ug/m3 0.39 ug/m3 78.38 ug/m3 33.8 ug/m3 13 ug/m3 0.34 mg/m3 27.31 C 62.46 % 1,014.41 mbar 1.98 m/s 107.07 Deg 13.96 ug/m3 1.97 ug/m3
2021-07-23 01:00 25.06 ug/m3 0.15 ug/m3 75.27 ug/m3 29.98 ug/m3 10.38 ug/m3 0.24 mg/m3 28.78 C 53.52 % 1,015.55 mbar 1.92 m/s 230.47 Deg 6.74 ug/m3 1.11 ug/m3
2021-07-22 01:00 23.73 ug/m3 0.19 ug/m3 83.2 ug/m3 30.95 ug/m3 11.9 ug/m3 0.28 mg/m3 26.82 C 69.2 % 1,015.66 mbar 1.78 m/s 201.58 Deg 10.22 ug/m3 0 ug/m3
2021-07-21 01:00 19 ug/m3 0.13 ug/m3 88.55 ug/m3 35.91 ug/m3 13.57 ug/m3 0.26 mg/m3 25.32 C 77.53 % 1,012.39 mbar 2.42 m/s 154.7 Deg 9.13 ug/m3 0 ug/m3
2021-07-20 01:00 17.82 ug/m3 0.05 ug/m3 86.61 ug/m3 37.8 ug/m3 11.08 ug/m3 0.17 mg/m3 25.48 C 70.83 % 1,008.62 mbar 2.13 m/s 279.15 Deg 3.14 ug/m3 0 ug/m3
2021-07-19 01:00 9.59 ug/m3 -0.16 ug/m3 90.53 ug/m3 N/A 12.05 ug/m3 0.18 mg/m3 25.23 C 71.01 % 1,006.16 mbar 3.66 m/s 265.55 Deg 0.81 ug/m3 0 ug/m3
2021-07-18 01:00 13.48 ug/m3 -0.17 ug/m3 75.82 ug/m3 48.12 ug/m3 11.89 ug/m3 0.18 mg/m3 25.23 C 66.8 % 1,009.76 mbar 3.65 m/s 267.46 Deg 2.11 ug/m3 0 ug/m3
2021-07-17 01:00 20.7 ug/m3 -0.09 ug/m3 58.89 ug/m3 40.81 ug/m3 9.97 ug/m3 0.22 mg/m3 26.69 C 63.02 % 1,012.33 mbar 2.42 m/s 262.67 Deg 6.87 ug/m3 0 ug/m3
2021-07-16 01:00 17.94 ug/m3 -0.04 ug/m3 55.72 ug/m3 37.76 ug/m3 10.38 ug/m3 0.23 mg/m3 26.88 C 65.38 % 1,013.89 mbar 2.16 m/s 170.44 Deg 9.7 ug/m3 0 ug/m3
2021-07-15 01:00 20.95 ug/m3 -0.1 ug/m3 63.32 ug/m3 50.44 ug/m3 13.98 ug/m3 0.25 mg/m3 27.82 C 70.19 % 1,012.95 mbar 1.87 m/s 200.42 Deg 7.05 ug/m3 0.75 ug/m3
2021-07-14 01:00 15.68 ug/m3 -0.13 ug/m3 68.28 ug/m3 35.52 ug/m3 9.3 ug/m3 0.21 mg/m3 28.36 C 67.26 % 1,012.53 mbar 1.97 m/s 188.73 Deg 3.95 ug/m3 0.75 ug/m3
2021-07-13 01:00 23.3 ug/m3 -0.03 ug/m3 62.51 ug/m3 43.61 ug/m3 11.22 ug/m3 0.27 mg/m3 28.15 C 69.13 % 1,013.55 mbar 1.56 m/s 165.92 Deg 11.72 ug/m3 1.04 ug/m3
2021-07-12 01:00 13.29 ug/m3 -0.12 ug/m3 68.97 ug/m3 27.5 ug/m3 8.14 ug/m3 0.19 mg/m3 27.2 C 63.11 % 1,012.60 mbar 2.01 m/s 194.47 Deg 3.86 ug/m3 0.76 ug/m3
2021-07-11 01:00 17.92 ug/m3 -0.06 ug/m3 63.16 ug/m3 39.21 ug/m3 10.47 ug/m3 0.21 mg/m3 27.74 C 66.98 % 1,012.75 mbar 1.87 m/s 239.06 Deg 5.6 ug/m3 0.78 ug/m3
2021-07-10 01:00 20.7 ug/m3 -0.02 ug/m3 54.82 ug/m3 43.73 ug/m3 11.85 ug/m3 0.23 mg/m3 29.13 C 59.11 % 1,015.89 mbar 2.48 m/s 245.37 Deg 5.01 ug/m3 0.72 ug/m3
2021-07-09 01:00 27.59 ug/m3 0.03 ug/m3 56.74 ug/m3 33.87 ug/m3 10.5 ug/m3 0.3 mg/m3 29.2 C 60.77 % 1,016.81 mbar 1.53 m/s 206.46 Deg 13.32 ug/m3 1.27 ug/m3
2021-07-08 01:00 23.84 ug/m3 0.03 ug/m3 69.65 ug/m3 30.34 ug/m3 11.24 ug/m3 0.31 mg/m3 27.83 C 65.39 % 1,014.46 mbar 1.86 m/s 125.45 Deg 15.34 ug/m3 1.2 ug/m3
2021-07-07 01:00 21.22 ug/m3 0.02 ug/m3 74.99 ug/m3 29.43 ug/m3 10.54 ug/m3 0.28 mg/m3 26.77 C 67.25 % 1,012.80 mbar 2.55 m/s 80.14 Deg 16.22 ug/m3 1.85 ug/m3
2021-07-06 01:00 19.8 ug/m3 -0.1 ug/m3 66.8 ug/m3 52.47 ug/m3 14.69 ug/m3 0.21 mg/m3 28.32 C 63.6 % 1,010.88 mbar 2.78 m/s 224.38 Deg 5.31 ug/m3 0.69 ug/m3

It is to be noted that the data is provisional and subject to quality assurance procedures. For validated data kindly refer your request to contact.air@era.org.mt